Time;durP1;ratioP1;P1;durP2;ratioP2;P2;SDS_P1;SDS_P2;PMS_P1;PMS_P2;Temp;Humidity;BMP_temperature;BMP_pressure;BME280_temperature;BME280_humidity;BME280_pressure;Samples;Min_cycle;Max_cycle;Signal;HPM_P1;HPM_P2
2022/10/02 00:01:04;;;;;;;29.05;17.52;;;10.20;99.90;;;;;;5001227;28;21146;-73
2022/10/02 00:03:37;;;;;;;43.67;15.88;;;10.20;99.90;;;;;;5012312;28;20060;-73
2022/10/02 00:06:13;;;;;;;45.63;15.15;;;10.30;99.90;;;;;;5015505;28;20038;-73
2022/10/02 00:08:41;;;;;;;30.45;12.57;;;10.30;99.90;;;;;;5003022;28;20057;-73
2022/10/02 00:11:16;;;;;;;31.70;11.55;;;10.30;99.90;;;;;;5027812;28;20309;-74
2022/10/02 00:13:56;;;;;;;33.55;12.18;;;10.40;99.90;;;;;;5019318;28;20056;-74
2022/10/02 00:16:40;;;;;;;36.88;10.45;;;10.30;99.90;;;;;;5003914;28;20042;-75
2022/10/02 00:19:12;;;;;;;24.65;8.80;;;10.40;99.90;;;;;;5022737;28;20049;-74
2022/10/02 00:21:55;;;;;;;37.88;10.15;;;10.40;99.90;;;;;;5009840;28;20663;-74
2022/10/02 00:25:05;;;;;;;27.20;8.00;;;10.50;99.90;;;;;;5028176;28;20049;-74
2022/10/02 00:27:37;;;;;;;18.58;7.13;;;10.50;99.90;;;;;;5001118;28;20061;-73
2022/10/02 00:30:05;;;;;;;27.95;7.60;;;10.60;99.90;;;;;;5017244;28;20046;-73
2022/10/02 00:32:48;;;;;;;22.38;7.60;;;10.60;99.90;;;;;;5014812;28;20688;-75
2022/10/02 00:35:47;;;;;;;35.15;8.07;;;10.60;99.90;;;;;;5016236;28;20515;-73
2022/10/02 00:38:36;;;;;;;29.63;7.25;;;10.70;99.90;;;;;;5035598;28;20053;-74
2022/10/02 00:41:27;;;;;;;30.38;7.60;;;10.70;99.90;;;;;;5021193;28;20043;-72
2022/10/02 00:44:37;;;;;;;30.90;6.63;;;10.80;99.90;;;;;;5018718;28;21083;-72
2022/10/02 00:47:32;;;;;;;32.13;7.47;;;10.80;99.90;;;;;;5021503;28;20063;-72
2022/10/02 00:50:45;;;;;;;21.08;6.85;;;10.80;99.90;;;;;;5004280;28;20041;-72
2022/10/02 00:53:39;;;;;;;28.17;6.50;;;10.90;99.90;;;;;;5007225;28;20080;-71
2022/10/02 00:56:40;;;;;;;23.83;7.18;;;10.80;99.90;;;;;;5000065;28;20033;-71
2022/10/02 00:59:19;;;;;;;20.13;6.03;;;10.80;99.90;;;;;;5023410;28;20139;-71
2022/10/02 01:01:57;;;;;;;21.38;8.57;;;10.80;99.90;;;;;;5013686;28;20111;-72
2022/10/02 01:04:36;;;;;;;19.08;6.00;;;10.80;99.90;;;;;;5015501;28;20505;-72
2022/10/02 01:07:06;;;;;;;34.25;10.40;;;10.90;99.90;;;;;;5023125;28;20038;-71
2022/10/02 01:09:33;;;;;;;28.98;8.75;;;10.90;99.90;;;;;;5003560;28;20052;-71
2022/10/02 01:12:00;;;;;;;28.20;10.23;;;10.90;99.90;;;;;;5039825;22;20046;-80
2022/10/02 01:14:35;;;;;;;34.50;9.00;;;11.00;99.90;;;;;;4981104;28;20053;-79
2022/10/02 01:17:04;;;;;;;30.52;8.25;;;11.00;99.90;;;;;;4998095;28;20702;-79
2022/10/02 01:19:37;;;;;;;31.40;7.43;;;11.00;99.90;;;;;;4984176;28;20045;-81
2022/10/02 01:22:14;;;;;;;24.15;6.43;;;11.10;99.90;;;;;;4996827;28;20145;-80
2022/10/02 01:24:47;;;;;;;18.23;6.05;;;11.10;99.90;;;;;;4997097;28;20046;-79
2022/10/02 01:27:14;;;;;;;28.73;9.32;;;11.20;99.90;;;;;;4984038;28;20046;-80
2022/10/02 01:29:45;;;;;;;31.33;7.97;;;11.20;99.90;;;;;;4985250;28;20045;-79
2022/10/02 01:32:11;;;;;;;38.00;7.78;;;11.30;99.90;;;;;;4991169;28;20042;-79
2022/10/02 01:34:38;;;;;;;28.23;6.95;;;11.30;99.90;;;;;;4988731;28;20045;-80
2022/10/02 01:37:06;;;;;;;24.52;7.55;;;11.40;99.90;;;;;;4988467;28;20084;-81
2022/10/02 01:39:33;;;;;;;32.03;7.03;;;11.40;99.90;;;;;;4984924;28;20054;-81
2022/10/02 01:42:00;;;;;;;26.08;6.95;;;11.50;99.90;;;;;;5003757;28;20050;-80
2022/10/02 01:44:28;;;;;;;19.67;6.50;;;11.40;99.90;;;;;;4995595;28;20050;-82
2022/10/02 01:47:07;;;;;;;37.05;7.93;;;11.40;99.90;;;;;;4978064;28;20447;-81
2022/10/02 01:50:05;;;;;;;31.70;7.07;;;11.50;99.90;;;;;;4967064;28;20104;-81
2022/10/02 01:52:45;;;;;;;27.58;7.60;;;11.50;99.90;;;;;;4974981;28;20046;-79
2022/10/02 01:55:39;;;;;;;31.67;7.68;;;11.50;99.90;;;;;;5001700;28;20067;-80
2022/10/02 01:58:35;;;;;;;42.78;8.98;;;11.50;99.90;;;;;;4994186;28;20046;-79
2022/10/02 02:01:11;;;;;;;;;;;11.50;99.90;;;;;;5000683;28;20045;-80
2022/10/02 02:04:02;;;;;;;32.70;7.85;;;11.50;99.90;;;;;;4983182;28;20020;-80
2022/10/02 02:06:36;;;;;;;32.58;9.18;;;11.40;99.90;;;;;;4991185;28;20057;-80
2022/10/02 02:09:14;;;;;;;36.13;9.45;;;11.50;99.90;;;;;;4990817;28;20053;-80
2022/10/02 02:11:53;;;;;;;35.15;9.98;;;11.50;99.90;;;;;;4970906;28;20042;-81
2022/10/02 02:14:30;;;;;;;39.35;10.25;;;11.50;99.90;;;;;;5011337;28;20053;-80
2022/10/02 02:17:30;;;;;;;26.35;9.75;;;11.50;99.90;;;;;;5006900;28;20045;-81
2022/10/02 02:20:05;;;;;;;41.83;10.18;;;11.60;99.90;;;;;;5013998;28;20180;-81
2022/10/02 02:22:42;;;;;;;37.80;8.90;;;11.60;99.90;;;;;;4985025;28;20046;-82
2022/10/02 02:25:21;;;;;;;28.70;10.70;;;11.60;99.90;;;;;;5007774;28;20046;-80
2022/10/02 02:27:55;;;;;;;42.33;9.90;;;11.70;99.90;;;;;;5022589;28;20451;-79
2022/10/02 02:30:22;;;;;;;;;;;11.60;99.90;;;;;;4971637;28;20042;-81
2022/10/02 02:32:57;;;;;;;44.72;11.43;;;11.70;99.90;;;;;;5001014;28;19921;-80
2022/10/02 02:35:33;;;;;;;40.08;12.27;;;11.70;99.90;;;;;;4987732;28;20038;-80
2022/10/02 02:38:09;;;;;;;37.53;13.23;;;11.70;99.90;;;;;;4983005;28;20110;-81
2022/10/02 02:40:39;;;;;;;48.47;14.57;;;11.80;99.90;;;;;;5006152;28;20042;-79
2022/10/02 02:43:11;;;;;;;57.78;17.10;;;11.80;99.90;;;;;;4990298;28;20513;-80
2022/10/02 02:46:07;;;;;;;46.58;17.15;;;11.90;99.90;;;;;;4989579;28;20057;-80
2022/10/02 02:48:43;;;;;;;51.45;16.15;;;11.90;99.90;;;;;;4994267;28;20054;-81
2022/10/02 02:51:18;;;;;;;38.47;15.60;;;11.90;99.90;;;;;;4972671;28;20043;-79
2022/10/02 02:53:52;;;;;;;43.67;16.23;;;11.90;99.90;;;;;;4975261;28;20057;-80
2022/10/02 02:56:20;;;;;;;49.30;17.02;;;11.90;99.90;;;;;;4977488;28;20045;-79
2022/10/02 02:59:00;;;;;;;51.95;19.60;;;11.90;99.90;;;;;;4978032;28;20046;-80
2022/10/02 03:01:27;;;;;;;50.42;18.02;;;11.90;99.90;;;;;;4989058;28;20094;-80
2022/10/02 03:03:56;;;;;;;52.95;20.38;;;11.90;99.90;;;;;;4989572;28;20064;-80
2022/10/02 03:06:36;;;;;;;50.92;18.42;;;11.90;99.90;;;;;;4994546;23;20084;-76
2022/10/02 03:09:06;;;;;;;58.22;20.02;;;11.90;99.90;;;;;;4960442;28;20133;-77
2022/10/02 03:12:18;;;;;;;55.42;19.52;;;11.90;99.90;;;;;;4970105;28;20522;-77
2022/10/02 03:15:12;;;;;;;58.50;20.55;;;11.90;99.90;;;;;;4966452;28;20133;-76
2022/10/02 03:17:48;;;;;;;52.28;19.70;;;11.90;99.90;;;;;;4943022;28;20057;-75
2022/10/02 03:20:22;;;;;;;59.70;21.67;;;11.90;99.90;;;;;;4970935;28;21620;-75
2022/10/02 03:22:53;;;;;;;46.33;19.25;;;12.00;99.90;;;;;;4953194;28;20363;-75
2022/10/02 03:25:23;;;;;;;53.58;20.73;;;12.00;99.90;;;;;;4952852;28;20050;-75
2022/10/02 03:28:24;;;;;;;50.03;21.25;;;12.00;99.90;;;;;;4936209;28;20580;-76
2022/10/02 03:31:13;;;;;;;53.38;22.20;;;12.00;99.90;;;;;;4952913;28;20043;-76
2022/10/02 03:33:40;;;;;;;58.70;22.33;;;12.10;99.90;;;;;;4954641;28;20081;-74
2022/10/02 03:36:11;;;;;;;51.60;21.42;;;12.10;99.90;;;;;;4969081;28;20641;-75
2022/10/02 03:38:38;;;;;;;52.10;21.17;;;12.10;99.90;;;;;;4973755;28;20096;-74
2022/10/02 03:41:05;;;;;;;55.67;23.50;;;12.10;99.90;;;;;;4950638;28;20981;-75
2022/10/02 03:43:31;;;;;;;64.15;21.65;;;12.00;99.90;;;;;;4969746;28;20050;-75
2022/10/02 03:45:58;;;;;;;44.20;20.50;;;12.00;99.90;;;;;;4958138;28;20034;-76
2022/10/02 03:48:25;;;;;;;55.88;20.55;;;12.00;99.90;;;;;;4980177;28;20062;-74
2022/10/02 03:50:52;;;;;;;56.92;22.50;;;12.00;99.90;;;;;;4972335;28;20583;-76
2022/10/02 03:53:23;;;;;;;56.50;21.80;;;12.00;99.90;;;;;;4960105;28;20114;-77
2022/10/02 03:56:02;;;;;;;50.38;22.23;;;12.00;99.90;;;;;;4973339;28;20695;-75
2022/10/02 03:58:28;;;;;;;58.38;21.02;;;12.00;99.90;;;;;;4969212;28;20073;-76
2022/10/02 04:01:06;;;;;;;49.58;22.55;;;12.00;99.90;;;;;;4951855;28;20076;-76
2022/10/02 04:03:46;;;;;;;56.05;22.00;;;12.00;99.90;;;;;;4973859;28;20553;-76
2022/10/02 04:06:35;;;;;;;57.00;22.90;;;12.10;99.90;;;;;;4976319;28;20058;-76
2022/10/02 04:09:11;;;;;;;55.65;21.58;;;12.00;99.90;;;;;;4978397;28;20049;-76
2022/10/02 04:11:42;;;;;;;52.53;21.48;;;12.10;99.90;;;;;;4946238;28;20039;-77
2022/10/02 04:14:19;;;;;;;46.72;21.35;;;12.10;99.90;;;;;;4950587;28;20035;-75
2022/10/02 04:17:08;;;;;;;51.35;20.55;;;12.10;99.90;;;;;;4956434;28;20596;-77
2022/10/02 04:19:48;;;;;;;56.10;20.70;;;12.10;99.90;;;;;;4961985;28;20050;-76
2022/10/02 04:22:23;;;;;;;53.03;20.90;;;12.10;99.90;;;;;;4959511;28;20065;-78
2022/10/02 04:25:08;;;;;;;57.28;21.42;;;12.10;99.90;;;;;;4959079;28;20054;-74
2022/10/02 04:28:00;;;;;;;53.03;21.02;;;12.10;99.90;;;;;;4950887;28;20157;-77
2022/10/02 04:30:28;;;;;;;56.30;21.08;;;12.10;99.90;;;;;;4954980;28;20566;-76
2022/10/02 04:33:16;;;;;;;46.72;20.55;;;12.10;99.90;;;;;;4956852;28;20089;-75
2022/10/02 04:35:59;;;;;;;51.95;21.98;;;12.10;99.90;;;;;;4951118;28;20305;-76
2022/10/02 04:39:03;;;;;;;50.47;21.35;;;12.10;99.90;;;;;;4971632;28;20235;-77
2022/10/02 04:41:43;;;;;;;62.15;22.80;;;12.20;99.90;;;;;;4955134;28;20042;-74
2022/10/02 04:44:47;;;;;;;50.78;23.25;;;12.20;99.90;;;;;;4939728;28;20073;-75
2022/10/02 04:47:42;;;;;;;43.35;22.05;;;12.20;99.90;;;;;;4975035;28;20049;-78
2022/10/02 04:50:29;;;;;;;52.13;22.85;;;12.30;99.90;;;;;;4954977;28;20042;-77
2022/10/02 04:53:37;;;;;;;67.18;28.35;;;12.30;99.90;;;;;;4966754;28;20130;-73
2022/10/02 04:56:28;;;;;;;53.65;23.77;;;12.20;99.90;;;;;;4967668;28;20046;-73
2022/10/02 04:59:20;;;;;;;53.30;25.10;;;12.10;99.90;;;;;;4966697;28;21168;-72
2022/10/02 05:02:14;;;;;;;52.13;22.23;;;12.10;99.90;;;;;;4967903;28;20064;-72
2022/10/02 05:05:03;;;;;;;45.58;23.25;;;12.00;99.90;;;;;;4947391;28;20046;-73
2022/10/02 05:07:56;;;;;;;42.33;20.13;;;12.00;99.90;;;;;;4963669;28;20042;-72
2022/10/02 05:10:41;;;;;;;43.85;20.65;;;12.00;99.90;;;;;;4971202;28;20050;-73
2022/10/02 05:13:35;;;;;;;60.50;25.33;;;11.90;99.90;;;;;;4968032;28;20073;-71
2022/10/02 05:16:31;;;;;;;66.20;27.00;;;11.90;99.90;;;;;;4972425;28;20097;-72
2022/10/02 05:19:35;;;;;;;74.78;31.00;;;12.00;99.90;;;;;;4928758;28;20089;-74
2022/10/02 05:22:39;;;;;;;74.97;32.60;;;11.90;99.90;;;;;;4963317;28;20043;-71
2022/10/02 05:25:18;;;;;;;93.32;34.72;;;12.00;99.90;;;;;;4957322;28;20046;-70
2022/10/02 05:28:12;;;;;;;62.97;29.20;;;12.00;99.90;;;;;;4946987;28;20125;-71
2022/10/02 05:31:24;;;;;;;76.85;32.00;;;12.00;99.90;;;;;;4958842;28;20046;-70
2022/10/02 05:34:18;;;;;;;81.10;31.27;;;12.00;99.90;;;;;;4947937;28;20161;-73
2022/10/02 05:36:58;;;;;;;63.05;28.70;;;12.00;99.90;;;;;;4945534;28;20057;-71
2022/10/02 05:39:41;;;;;;;64.50;27.55;;;11.90;99.90;;;;;;4968264;28;20069;-70
2022/10/02 05:42:30;;;;;;;79.75;30.30;;;11.80;99.90;;;;;;4962871;28;20463;-73
2022/10/02 05:45:24;;;;;;;75.43;30.45;;;11.80;99.90;;;;;;4957986;28;20537;-73
2022/10/02 05:48:00;;;;;;;71.63;31.23;;;11.80;99.90;;;;;;4963939;28;20349;-70
2022/10/02 05:50:33;;;;;;;79.45;33.60;;;11.90;99.90;;;;;;4969867;28;20133;-73
2022/10/02 05:53:23;;;;;;;80.32;31.13;;;11.90;99.90;;;;;;4964212;28;20041;-73
2022/10/02 05:55:57;;;;;;;88.78;34.80;;;11.90;99.90;;;;;;4952796;28;20133;-72
2022/10/02 05:58:36;;;;;;;87.80;33.63;;;11.90;99.90;;;;;;4972351;28;20042;-72
2022/10/02 06:01:06;;;;;;;74.18;31.52;;;11.80;99.90;;;;;;4949132;28;20318;-71
2022/10/02 06:03:43;;;;;;;85.45;34.50;;;11.90;99.90;;;;;;4945936;28;20057;-71
2022/10/02 06:06:25;;;;;;;96.82;33.13;;;11.90;99.90;;;;;;4948138;28;20432;-74
2022/10/02 06:09:02;;;;;;;85.93;34.20;;;12.00;99.90;;;;;;4949373;28;20436;-75
2022/10/02 06:11:39;;;;;;;104.13;33.97;;;12.10;99.90;;;;;;4948782;28;20052;-71
2022/10/02 06:14:31;;;;;;;85.43;34.33;;;12.00;99.90;;;;;;4947495;28;20133;-72
2022/10/02 06:17:00;;;;;;;92.35;34.65;;;12.10;99.90;;;;;;4962194;28;20069;-72
2022/10/02 06:19:43;;;;;;;90.80;35.75;;;12.20;99.90;;;;;;4970206;28;20053;-74
2022/10/02 06:22:17;;;;;;;84.95;35.58;;;12.30;99.90;;;;;;4965338;28;20042;-72
2022/10/02 06:24:52;;;;;;;87.95;34.72;;;12.30;99.90;;;;;;4946382;28;20046;-74
2022/10/02 06:27:37;;;;;;;85.60;35.08;;;12.40;99.90;;;;;;4969007;28;20150;-71
2022/10/02 06:30:08;;;;;;;89.53;33.03;;;12.30;99.90;;;;;;4945948;28;20049;-71
2022/10/02 06:32:50;;;;;;;92.47;34.50;;;12.30;99.90;;;;;;4948551;28;20476;-71
2022/10/02 06:35:32;;;;;;;91.47;37.95;;;12.30;99.90;;;;;;4966266;28;20137;-71
2022/10/02 06:38:03;;;;;;;83.45;33.90;;;12.20;99.90;;;;;;4946565;28;20545;-71
2022/10/02 06:40:41;;;;;;;101.53;35.55;;;12.30;99.90;;;;;;4963815;28;20050;-73
2022/10/02 06:43:08;;;;;;;112.07;37.47;;;12.30;99.90;;;;;;4971760;28;20436;-70
2022/10/02 06:46:01;;;;;;;96.43;36.22;;;12.30;99.90;;;;;;4946472;28;20038;-69
2022/10/02 06:48:51;;;;;;;87.72;33.33;;;12.30;99.90;;;;;;4969123;28;20130;-73
2022/10/02 06:51:41;;;;;;;114.55;44.83;;;12.30;99.90;;;;;;4967170;28;20047;-73
2022/10/02 06:54:28;;;;;;;97.30;36.53;;;12.30;99.90;;;;;;4964375;28;20125;-72
2022/10/02 06:57:19;;;;;;;94.85;35.97;;;12.40;99.90;;;;;;4968271;28;21270;-72
2022/10/02 07:00:15;;;;;;;100.80;39.33;;;12.30;99.90;;;;;;4946369;28;20525;-73
2022/10/02 07:03:05;;;;;;;98.22;36.80;;;12.40;99.90;;;;;;4961282;28;20046;-72
2022/10/02 07:05:53;;;;;;;77.63;31.92;;;12.60;99.90;;;;;;4938722;28;20145;-72
2022/10/02 07:08:31;;;;;;;101.47;37.45;;;12.60;99.90;;;;;;4956615;28;20046;-73
2022/10/02 07:11:13;;;;;;;84.50;33.50;;;12.60;99.90;;;;;;4947996;28;20047;-72
2022/10/02 07:13:43;;;;;;;86.78;33.30;;;12.60;99.90;;;;;;4992150;23;20074;-74
2022/10/02 07:16:22;;;;;;;86.97;31.30;;;12.60;99.90;;;;;;4963255;28;20038;-75
2022/10/02 07:19:19;;;;;;;87.70;33.28;;;12.70;99.90;;;;;;4961312;28;20084;-76
2022/10/02 07:22:25;;;;;;;77.68;30.23;;;12.60;99.90;;;;;;4959483;28;20068;-75
2022/10/02 07:25:27;;;;;;;86.40;32.10;;;12.60;99.90;;;;;;4940503;28;20043;-75
2022/10/02 07:28:17;;;;;;;72.43;29.85;;;12.70;99.90;;;;;;4947262;28;20105;-75
2022/10/02 07:30:56;;;;;;;72.18;31.13;;;12.70;99.90;;;;;;4948549;28;20412;-75
2022/10/02 07:33:47;;;;;;;78.72;29.75;;;12.60;99.90;;;;;;4944052;28;20045;-75
2022/10/02 07:36:38;;;;;;;83.28;29.08;;;12.70;99.90;;;;;;4937878;28;20236;-75
2022/10/02 07:39:40;;;;;;;87.78;29.85;;;12.70;99.90;;;;;;4951040;28;20137;-75
2022/10/02 07:42:25;;;;;;;79.03;32.78;;;12.70;99.90;;;;;;4930225;28;20355;-75
2022/10/02 07:45:20;;;;;;;68.55;27.75;;;12.70;99.90;;;;;;4942737;28;20058;-75
2022/10/02 07:47:57;;;;;;;70.77;29.13;;;12.80;99.90;;;;;;4961617;28;20145;-75
2022/10/02 07:50:45;;;;;;;82.10;29.10;;;12.80;99.90;;;;;;4945249;28;20131;-76
2022/10/02 07:53:27;;;;;;;72.90;28.45;;;12.80;99.90;;;;;;4931013;28;20047;-75
2022/10/02 07:55:55;;;;;;;76.10;28.17;;;12.80;99.90;;;;;;4936077;28;20138;-75
2022/10/02 07:58:33;;;;;;;69.93;25.33;;;12.80;99.90;;;;;;4955096;28;20050;-75
2022/10/02 08:01:04;;;;;;;67.22;27.70;;;12.80;99.90;;;;;;4941529;28;20523;-77
2022/10/02 08:03:38;;;;;;;70.38;27.65;;;12.80;99.90;;;;;;4945878;28;20062;-76
2022/10/02 08:06:05;;;;;;;69.57;28.80;;;12.80;99.90;;;;;;4955932;28;20047;-76
2022/10/02 08:09:04;;;;;;;56.40;25.90;;;12.80;99.90;;;;;;4940864;28;20043;-74
2022/10/02 08:11:37;;;;;;;65.93;27.42;;;12.70;99.90;;;;;;4945579;28;20058;-74
2022/10/02 08:14:10;;;;;;;60.85;25.23;;;12.80;99.90;;;;;;4961659;28;20579;-75
2022/10/02 08:16:47;;;;;;;65.93;24.70;;;12.80;99.90;;;;;;4944055;28;20117;-77
2022/10/02 08:19:28;;;;;;;58.53;26.88;;;12.80;99.90;;;;;;4962628;28;20291;-76
2022/10/02 08:21:59;;;;;;;55.85;23.77;;;12.80;99.90;;;;;;4937150;28;20687;-76
2022/10/02 08:24:49;;;;;;;74.45;28.75;;;12.70;99.90;;;;;;4929786;28;20210;-76
2022/10/02 08:27:23;;;;;;;57.67;28.25;;;12.80;99.90;;;;;;4939960;28;20042;-75
2022/10/02 08:30:01;;;;;;;67.13;28.38;;;12.80;99.90;;;;;;4942066;28;20241;-77
2022/10/02 08:32:32;;;;;;;57.03;28.15;;;12.80;99.90;;;;;;4930198;28;20080;-77
2022/10/02 08:35:10;;;;;;;75.95;28.52;;;12.90;99.90;;;;;;4942813;28;20039;-77
2022/10/02 08:38:11;;;;;;;63.53;27.65;;;13.00;99.90;;;;;;4938856;28;20202;-77
2022/10/02 08:41:10;;;;;;;57.97;25.38;;;12.90;99.90;;;;;;4943975;28;20055;-77
2022/10/02 08:44:05;;;;;;;59.13;26.60;;;13.00;99.90;;;;;;4875536;28;20049;-77
2022/10/02 08:46:57;;;;;;;51.40;21.10;;;13.10;99.90;;;;;;4940838;28;20062;-78
2022/10/02 08:49:36;;;;;;;49.58;22.23;;;12.90;99.90;;;;;;4945211;28;20793;-77
2022/10/02 08:52:33;;;;;;;47.55;21.92;;;13.10;99.90;;;;;;4939486;28;20046;-77
2022/10/02 08:55:18;;;;;;;46.47;20.88;;;13.10;99.90;;;;;;4942474;28;20489;-75
2022/10/02 08:58:21;;;;;;;64.10;20.08;;;13.10;99.90;;;;;;4940954;28;20331;-75
2022/10/02 09:00:56;;;;;;;57.45;22.50;;;13.10;99.90;;;;;;4934776;28;20074;-76
2022/10/02 09:04:02;;;;;;;51.38;21.77;;;13.20;99.90;;;;;;4942266;28;20579;-76
2022/10/02 09:06:44;;;;;;;47.03;20.35;;;13.30;99.90;;;;;;4966934;28;20097;-76
2022/10/02 09:09:39;;;;;;;44.20;17.55;;;13.30;99.90;;;;;;4942877;28;20053;-75
2022/10/02 09:12:25;;;;;;;40.10;16.10;;;13.20;99.90;;;;;;4921738;29;20263;-77
2022/10/02 09:15:06;;;;;;;35.83;15.68;;;13.20;99.90;;;;;;4937391;28;20049;-76
2022/10/02 09:17:45;;;;;;;28.80;14.23;;;13.20;99.90;;;;;;4944240;28;20057;-76
2022/10/02 09:20:41;;;;;;;27.77;13.07;;;13.10;99.90;;;;;;4939646;28;20054;-76
2022/10/02 09:23:37;;;;;;;34.85;16.00;;;13.30;99.90;;;;;;4924448;29;20057;-76
2022/10/02 09:26:18;;;;;;;31.15;16.20;;;13.50;99.90;;;;;;4959068;28;20535;-76
2022/10/02 09:29:41;;;;;;;34.55;17.02;;;13.90;99.90;;;;;;4939903;28;20590;-76
2022/10/02 09:32:49;;;;;;;32.75;17.88;;;13.80;99.90;;;;;;4920955;28;20146;-75
2022/10/02 09:35:23;;;;;;;31.08;19.45;;;13.60;99.90;;;;;;4953007;28;20364;-75
2022/10/02 09:38:28;;;;;;;37.22;20.15;;;13.60;99.90;;;;;;4957032;28;20105;-75
2022/10/02 09:41:41;;;;;;;47.67;21.13;;;13.70;99.90;;;;;;4873820;28;20070;-74
2022/10/02 09:44:15;;;;;;;42.47;20.40;;;13.50;99.90;;;;;;4936530;28;20097;-76
2022/10/02 09:47:01;;;;;;;39.67;22.08;;;13.50;99.90;;;;;;4937811;28;20517;-76
2022/10/02 09:49:56;;;;;;;38.38;21.15;;;13.40;99.90;;;;;;4941286;28;20078;-76
2022/10/02 09:52:49;;;;;;;44.13;22.08;;;13.20;99.90;;;;;;4951485;28;20528;-75
2022/10/02 09:55:21;;;;;;;46.80;22.27;;;13.30;99.90;;;;;;4937385;28;20501;-76
2022/10/02 09:58:19;;;;;;;37.97;22.23;;;13.40;99.90;;;;;;4929986;28;20254;-71
2022/10/02 10:01:27;;;;;;;43.22;22.17;;;13.50;99.90;;;;;;4938443;28;20039;-70
2022/10/02 10:03:57;;;;;;;45.53;21.52;;;13.40;99.90;;;;;;4940318;28;20047;-70
2022/10/02 10:06:46;;;;;;;43.55;21.48;;;13.50;99.90;;;;;;4941947;28;20039;-70
2022/10/02 10:09:33;;;;;;;35.80;20.48;;;13.50;99.90;;;;;;4937712;28;20299;-69
2022/10/02 10:12:48;;;;;;;46.80;21.98;;;13.60;99.90;;;;;;4956087;28;20513;-70
2022/10/02 10:15:18;;;;;;;44.70;23.92;;;13.60;99.90;;;;;;4928690;28;20047;-69
2022/10/02 10:18:10;;;;;;;41.33;24.42;;;13.60;99.90;;;;;;4956449;28;20149;-69
2022/10/02 10:20:59;;;;;;;38.13;21.08;;;13.70;99.90;;;;;;4940606;28;20326;-71
2022/10/02 10:23:51;;;;;;;40.47;23.00;;;13.70;99.90;;;;;;4960917;28;20055;-71
2022/10/02 10:26:45;;;;;;;35.38;20.67;;;13.80;99.90;;;;;;4944042;28;20051;-71
2022/10/02 10:29:44;;;;;;;28.40;16.77;;;13.90;99.90;;;;;;4957358;28;20039;-71
2022/10/02 10:32:50;;;;;;;27.60;17.67;;;14.00;99.90;;;;;;4960054;28;20043;-71
2022/10/02 10:35:24;;;;;;;24.90;17.58;;;14.30;99.90;;;;;;4940500;28;20042;-71
2022/10/02 10:38:31;;;;;;;29.42;17.55;;;14.40;99.90;;;;;;4957748;28;20051;-70
2022/10/02 10:41:28;;;;;;;27.45;19.70;;;14.50;99.90;;;;;;4955474;28;20058;-70
2022/10/02 10:44:32;;;;;;;27.95;19.00;;;14.40;99.90;;;;;;4938250;28;20047;-71
2022/10/02 10:47:21;;;;;;;30.38;20.67;;;14.40;99.90;;;;;;4959522;28;20055;-71
2022/10/02 10:50:16;;;;;;;22.38;20.02;;;14.40;99.90;;;;;;4928611;28;20137;-69
2022/10/02 10:52:55;;;;;;;27.63;20.00;;;14.40;99.90;;;;;;4940690;28;20051;-72
2022/10/02 10:55:58;;;;;;;26.20;20.90;;;14.30;99.90;;;;;;4926668;28;20691;-71
2022/10/02 10:58:46;;;;;;;29.58;20.15;;;14.10;99.90;;;;;;4959625;28;20051;-71
2022/10/02 11:01:17;;;;;;;31.00;21.85;;;14.10;99.90;;;;;;4964594;28;20137;-71
2022/10/02 11:04:26;;;;;;;27.40;19.63;;;14.20;99.90;;;;;;4939436;28;20042;-71
2022/10/02 11:07:14;;;;;;;31.83;21.00;;;14.20;99.90;;;;;;4932291;28;20049;-69
2022/10/02 11:09:56;;;;;;;27.90;19.55;;;14.20;99.90;;;;;;4954608;28;20039;-70
2022/10/02 11:12:38;;;;;;;23.15;19.58;;;14.20;99.90;;;;;;4958935;28;20216;-70
2022/10/02 11:15:19;;;;;;;30.55;20.42;;;14.20;99.90;;;;;;4925399;28;20081;-70
2022/10/02 11:17:59;;;;;;;35.72;17.65;;;14.30;99.90;;;;;;4946749;28;20100;-70
2022/10/02 11:20:51;;;;;;;28.85;20.58;;;14.30;99.90;;;;;;4961386;28;20059;-70
2022/10/02 11:23:55;;;;;;;31.50;18.23;;;14.30;99.90;;;;;;4961777;28;20051;-70
2022/10/02 11:26:29;;;;;;;19.75;17.65;;;14.50;99.90;;;;;;4936778;28;20489;-71
2022/10/02 11:29:38;;;;;;;23.73;21.25;;;14.80;99.90;;;;;;4939996;28;20054;-71
2022/10/02 11:32:19;;;;;;;22.58;18.92;;;15.10;99.90;;;;;;4955859;28;20390;-71
2022/10/02 11:35:02;;;;;;;20.98;18.83;;;15.40;99.90;;;;;;4957991;28;20050;-71
2022/10/02 11:37:44;;;;;;;25.50;20.05;;;15.40;99.90;;;;;;4942135;28;20147;-70
2022/10/02 11:40:40;;;;;;;22.85;20.27;;;15.30;99.90;;;;;;4937243;28;20355;-71
2022/10/02 11:43:45;;;;;;;24.33;21.75;;;15.50;99.90;;;;;;4953003;28;20135;-71
2022/10/02 11:46:24;;;;;;;24.70;21.52;;;15.80;99.90;;;;;;4959396;28;20039;-71
2022/10/02 11:49:09;;;;;;;23.00;20.48;;;15.80;99.90;;;;;;4939929;28;21580;-71
2022/10/02 11:51:52;;;;;;;23.75;21.33;;;15.80;99.90;;;;;;4935904;28;20070;-70
2022/10/02 11:54:34;;;;;;;22.70;20.77;;;16.00;99.90;;;;;;4952550;28;20505;-71
2022/10/02 11:57:07;;;;;;;23.58;21.30;;;15.80;99.90;;;;;;4955488;28;20062;-71
2022/10/02 12:00:03;;;;;;;22.00;20.10;;;15.70;99.90;;;;;;4958618;28;20047;-70
2022/10/02 12:02:41;;;;;;;21.38;19.05;;;15.70;99.90;;;;;;4940442;28;20051;-71
2022/10/02 12:05:20;;;;;;;23.42;20.77;;;15.70;99.90;;;;;;4941338;28;20047;-70
2022/10/02 12:08:13;;;;;;;23.40;21.70;;;15.70;99.90;;;;;;4939705;28;20405;-72
2022/10/02 12:11:10;;;;;;;24.23;21.95;;;15.80;99.90;;;;;;4923044;28;20044;-69
2022/10/02 12:14:01;;;;;;;24.90;22.35;;;15.60;99.90;;;;;;4946023;28;20409;-70
2022/10/02 12:16:47;;;;;;;23.23;21.33;;;15.70;99.90;;;;;;4973488;28;20211;-70
2022/10/02 12:19:38;;;;;;;24.60;22.77;;;16.00;99.90;;;;;;4941547;28;20051;-70
2022/10/02 12:28:44;;;;;;;24.27;22.35;;;16.80;99.90;;;;;;4954972;28;20437;-70
2022/10/02 12:31:17;;;;;;;25.00;22.45;;;16.40;99.90;;;;;;4936558;28;20031;-69
2022/10/02 12:34:13;;;;;;;23.48;21.65;;;16.30;99.90;;;;;;4938233;28;20053;-69
2022/10/02 12:36:55;;;;;;;24.23;22.35;;;16.20;99.90;;;;;;4940894;28;20512;-70
2022/10/02 12:39:51;;;;;;;25.13;22.52;;;16.10;99.90;;;;;;4968913;28;20051;-69
2022/10/02 12:42:48;;;;;;;23.58;21.67;;;15.90;99.90;;;;;;4937719;28;20232;-70
2022/10/02 12:45:57;;;;;;;23.05;21.38;;;16.10;99.90;;;;;;4940898;28;20078;-70
2022/10/02 12:48:44;;;;;;;23.52;21.48;;;16.40;99.90;;;;;;4940680;28;20051;-69
2022/10/02 12:51:45;;;;;;;25.10;22.25;;;16.40;99.90;;;;;;4957217;28;20039;-70
2022/10/02 12:54:33;;;;;;;24.83;22.52;;;16.30;99.90;;;;;;4955900;28;20057;-69
2022/10/02 13:00:15;;;;;;;23.50;21.67;;;16.30;99.90;;;;;;4937410;28;20050;-71
2022/10/02 13:03:20;;;;;;;23.60;21.27;;;16.40;99.90;;;;;;4954999;28;20081;-70
2022/10/02 13:06:05;;;;;;;25.00;22.67;;;16.30;99.90;;;;;;4954040;28;20393;-69
2022/10/02 13:08:47;;;;;;;23.65;21.50;;;16.30;99.90;;;;;;4934834;28;20054;-70
2022/10/02 13:11:36;;;;;;;24.50;22.05;;;16.40;99.90;;;;;;4955830;28;20584;-70
2022/10/02 13:14:24;;;;;;;22.77;20.83;;;16.50;99.90;;;;;;4936815;28;20053;-70
2022/10/02 13:17:04;;;;;;;24.58;22.10;;;16.50;99.90;;;;;;4953527;28;20261;-70
2022/10/02 13:19:45;;;;;;;23.60;21.63;;;16.50;99.90;;;;;;4936844;28;20537;-70
2022/10/02 13:22:38;;;;;;;24.50;22.25;;;16.60;99.90;;;;;;4954570;28;20051;-69
2022/10/02 13:25:47;;;;;;;24.92;22.52;;;16.50;99.90;;;;;;4953619;28;20053;-70
2022/10/02 13:28:48;;;;;;;22.95;20.90;;;16.30;99.90;;;;;;4934257;28;20042;-69
2022/10/02 13:31:26;;;;;;;22.95;20.95;;;16.00;99.90;;;;;;4957266;28;20054;-70
2022/10/02 13:34:17;;;;;;;22.63;20.88;;;15.50;99.90;;;;;;4936605;28;20047;-69
2022/10/02 13:37:01;;;;;;;23.38;19.63;;;15.40;99.90;;;;;;4938174;28;20046;-69
2022/10/02 13:39:58;;;;;;;21.73;19.83;;;15.30;99.90;;;;;;4956121;28;20051;-69
2022/10/02 13:42:50;;;;;;;23.05;21.10;;;15.30;99.90;;;;;;4951156;28;20080;-70
2022/10/02 13:45:26;;;;;;;22.38;20.17;;;15.20;99.90;;;;;;4938938;28;20134;-70
2022/10/02 13:47:58;;;;;;;23.15;20.52;;;15.30;99.90;;;;;;4936106;28;20046;-70
2022/10/02 13:50:49;;;;;;;22.75;20.63;;;15.40;99.90;;;;;;4938895;28;20196;-70
2022/10/02 13:53:30;;;;;;;21.75;19.65;;;15.60;99.90;;;;;;4924676;28;20042;-70
2022/10/02 13:56:21;;;;;;;21.42;19.75;;;15.80;99.90;;;;;;4935520;28;20097;-71
2022/10/02 13:58:56;;;;;;;23.33;21.48;;;16.00;99.90;;;;;;4960578;28;20050;-70
2022/10/02 14:01:52;;;;;;;21.70;20.15;;;16.00;99.90;;;;;;4939273;28;20539;-70
2022/10/02 14:04:29;;;;;;;22.85;21.10;;;16.00;99.90;;;;;;4945156;28;20050;-71